createdAt,value
2018-07-02T00:00:29.494Z,20.29
2018-07-02T00:01:29.164Z,20.18
2018-07-02T00:02:29.178Z,20.16
2018-07-02T00:03:29.057Z,20.14
2018-07-02T00:04:29.287Z,20.16
2018-07-02T00:05:29.232Z,20.14
2018-07-02T00:06:29.505Z,20.14
2018-07-02T00:07:29.210Z,20.11
2018-07-02T00:08:30.029Z,20.1
2018-07-02T00:09:29.144Z,20.06
2018-07-02T00:10:29.134Z,20.02
2018-07-02T00:11:29.299Z,20.06
2018-07-02T00:12:29.975Z,20
2018-07-02T00:13:29.542Z,20.04
2018-07-02T00:14:29.216Z,19.96
2018-07-02T00:15:29.244Z,19.95
2018-07-02T00:16:29.267Z,19.96
2018-07-02T00:17:29.577Z,19.88
2018-07-02T00:18:29.418Z,19.94
2018-07-02T00:19:30.021Z,19.88
2018-07-02T00:20:29.766Z,19.86
2018-07-02T00:21:29.498Z,19.77
2018-07-02T00:22:29.525Z,19.79
2018-07-02T00:23:30.741Z,19.79
2018-07-02T00:24:29.546Z,19.84
2018-07-02T00:25:29.897Z,19.7
2018-07-02T00:26:29.611Z,19.79
2018-07-02T00:27:30.215Z,19.71
2018-07-02T00:28:29.937Z,19.69
2018-07-02T00:29:29.946Z,19.67
2018-07-02T00:30:31.126Z,19.64
2018-07-02T00:31:31.050Z,19.66
2018-07-02T00:32:30.404Z,19.58
2018-07-02T00:33:29.753Z,19.62
2018-07-02T00:34:29.775Z,19.71
2018-07-02T00:35:29.508Z,19.55
2018-07-02T00:36:29.835Z,19.56
2018-07-02T00:37:29.898Z,19.67
2018-07-02T00:38:30.303Z,19.48
2018-07-02T00:39:30.229Z,19.49
2018-07-02T00:40:30.501Z,19.45
2018-07-02T00:41:30.357Z,19.41
2018-07-02T00:42:29.971Z,19.54
2018-07-02T00:43:30.267Z,19.39
2018-07-02T00:44:30.273Z,19.44
2018-07-02T00:45:30.018Z,19.44
2018-07-02T00:46:30.319Z,19.39
2018-07-02T00:47:30.384Z,19.39
2018-07-02T00:48:30.382Z,19.41
2018-07-02T00:49:29.821Z,19.36
2018-07-02T00:50:31.555Z,19.44
2018-07-02T00:51:30.448Z,19.31
2018-07-02T00:52:30.479Z,19.27
2018-07-02T00:53:30.215Z,19.29
2018-07-02T00:54:30.541Z,19.31
2018-07-02T00:55:30.259Z,19.3
2018-07-02T00:56:30.356Z,19.26
2018-07-02T00:57:31.727Z,19.3
2018-07-02T00:58:30.609Z,19.22
2018-07-02T00:59:30.344Z,19.18
2018-07-02T01:00:30.970Z,19.19
2018-07-02T01:01:30.668Z,19.19
2018-07-02T01:02:30.390Z,19.21
2018-07-02T01:03:30.765Z,19.09
2018-07-02T01:04:30.437Z,19.18
2018-07-02T01:05:30.456Z,19.14
2018-07-02T01:06:30.763Z,19.12
2018-07-02T01:07:30.980Z,18.99
2018-07-02T01:08:30.835Z,19
2018-07-02T01:09:30.564Z,18.93
2018-07-02T01:10:30.879Z,18.92
2018-07-02T01:11:30.877Z,18.96
2018-07-02T01:12:30.913Z,18.98
2018-07-02T01:13:30.913Z,18.98
2018-07-02T01:14:30.677Z,18.9
2018-07-02T01:15:31.004Z,18.95
2018-07-02T01:16:31.013Z,18.9
2018-07-02T01:17:30.437Z,18.84
2018-07-02T01:18:31.025Z,18.88
2018-07-02T01:19:30.775Z,18.92
2018-07-02T01:20:32.331Z,18.89
2018-07-02T01:21:30.841Z,18.92
2018-07-02T01:22:31.134Z,18.84
2018-07-02T01:23:30.855Z,18.88
2018-07-02T01:24:31.154Z,18.83
2018-07-02T01:25:30.905Z,18.75
2018-07-02T01:26:32.220Z,18.74
2018-07-02T01:27:31.254Z,18.78
2018-07-02T01:28:31.252Z,18.83
2018-07-02T01:29:32.461Z,18.73
2018-07-02T01:30:30.717Z,18.73
2018-07-02T01:31:31.319Z,18.73
2018-07-02T01:32:31.540Z,18.75
2018-07-02T01:33:31.348Z,18.65
2018-07-02T01:34:32.021Z,18.74
2018-07-02T01:35:31.421Z,18.65
2018-07-02T01:36:31.654Z,18.63
2018-07-02T01:37:31.715Z,18.6
2018-07-02T01:38:31.496Z,18.59
2018-07-02T01:39:38.014Z,18.58
2018-07-02T01:40:31.534Z,18.6
2018-07-02T01:41:31.260Z,18.59
2018-07-02T01:42:31.262Z,18.53
2018-07-02T01:43:31.656Z,18.56
2018-07-02T01:44:31.299Z,18.59
2018-07-02T01:45:31.916Z,18.53
2018-07-02T01:46:31.659Z,18.45
2018-07-02T01:47:31.395Z,18.45
2018-07-02T01:48:32.735Z,18.49
2018-07-02T01:49:31.693Z,18.52
2018-07-02T01:50:31.446Z,18.47
2018-07-02T01:51:31.474Z,18.38
2018-07-02T01:52:31.473Z,18.41
2018-07-02T01:53:31.840Z,18.43
2018-07-02T01:54:31.813Z,18.38
2018-07-02T01:55:31.538Z,18.45
2018-07-02T01:56:31.858Z,18.41
2018-07-02T01:57:31.884Z,18.31
2018-07-02T01:58:32.415Z,18.38
2018-07-02T01:59:31.920Z,18.28
2018-07-02T02:00:31.943Z,18.29
2018-07-02T02:01:31.966Z,18.31
2018-07-02T02:02:32.243Z,18.29
2018-07-02T02:03:31.729Z,18.22
2018-07-02T02:04:32.037Z,18.23
2018-07-02T02:05:31.766Z,18.19
2018-07-02T02:06:31.779Z,18.26
2018-07-02T02:07:33.047Z,18.11
2018-07-02T02:08:31.815Z,18.23
2018-07-02T02:09:31.848Z,18.11
2018-07-02T02:10:32.152Z,18.26
2018-07-02T02:11:33.166Z,18.16
2018-07-02T02:12:32.219Z,18.11
2018-07-02T02:13:32.213Z,18.15
2018-07-02T02:14:32.225Z,18.03
2018-07-02T02:15:32.311Z,18.03
2018-07-02T02:16:32.261Z,18.08
2018-07-02T02:17:32.069Z,18.08
2018-07-02T02:18:32.332Z,18.08
2018-07-02T02:19:33.453Z,18.07
2018-07-02T02:20:32.370Z,17.98
2018-07-02T02:21:32.103Z,17.97
2018-07-02T02:22:32.118Z,18.07
2018-07-02T02:23:32.534Z,18.03
2018-07-02T02:24:32.488Z,18
2018-07-02T02:25:32.493Z,17.95
2018-07-02T02:26:32.201Z,18
2018-07-02T02:27:32.935Z,17.94
2018-07-02T02:28:32.244Z,17.92
2018-07-02T02:29:32.543Z,17.98
2018-07-02T02:30:32.290Z,17.94
2018-07-02T02:31:32.597Z,17.86
2018-07-02T02:32:32.618Z,17.89
2018-07-02T02:33:32.366Z,17.92
2018-07-02T02:34:32.371Z,17.86
2018-07-02T02:35:32.399Z,17.86
2018-07-02T02:36:32.873Z,17.87
2018-07-02T02:37:32.493Z,17.8
2018-07-02T02:38:32.919Z,17.79
2018-07-02T02:39:32.788Z,17.72
2018-07-02T02:40:33.052Z,17.79
2018-07-02T02:41:32.813Z,17.76
2018-07-02T02:42:32.552Z,17.79
2018-07-02T02:43:32.606Z,17.78
2018-07-02T02:44:32.993Z,17.68
2018-07-02T02:45:32.601Z,17.71
2018-07-02T02:46:32.624Z,17.71
2018-07-02T02:47:32.931Z,17.67
2018-07-02T02:48:33.265Z,17.7
2018-07-02T02:49:32.714Z,17.74
2018-07-02T02:50:32.714Z,17.7
2018-07-02T02:51:33.005Z,17.65
2018-07-02T02:52:34.104Z,17.7
2018-07-02T02:53:32.485Z,17.74
2018-07-02T02:54:33.065Z,17.65
2018-07-02T02:55:33.105Z,17.64
2018-07-02T02:56:34.246Z,17.63
2018-07-02T02:57:33.142Z,17.68
2018-07-02T02:58:32.881Z,17.63
2018-07-02T02:59:32.889Z,17.65
2018-07-02T03:00:34.235Z,17.56
2018-07-02T03:01:33.220Z,17.64
2018-07-02T03:02:32.957Z,17.52
2018-07-02T03:03:32.988Z,17.49
2018-07-02T03:04:32.992Z,17.59
2018-07-02T03:05:33.471Z,17.57
2018-07-02T03:06:33.333Z,17.57
2018-07-02T03:07:33.379Z,17.57
2018-07-02T03:08:33.377Z,17.51
2018-07-02T03:09:34.034Z,17.56
2018-07-02T03:10:33.445Z,17.56
2018-07-02T03:11:33.450Z,17.6
2018-07-02T03:12:33.169Z,17.44
2018-07-02T03:13:33.806Z,17.54
2018-07-02T03:14:33.484Z,17.49
2018-07-02T03:15:33.511Z,17.54
2018-07-02T03:16:33.560Z,17.52
2018-07-02T03:17:34.564Z,17.51
2018-07-02T03:18:33.299Z,17.38
2018-07-02T03:19:33.305Z,17.48
2018-07-02T03:20:33.723Z,17.48
2018-07-02T03:21:33.539Z,17.52
2018-07-02T03:22:33.085Z,17.44
2018-07-02T03:23:33.703Z,17.33
2018-07-02T03:24:33.128Z,17.36
2018-07-02T03:25:33.738Z,17.42
2018-07-02T03:26:33.936Z,17.39
2018-07-02T03:27:33.469Z,17.36
2018-07-02T03:28:33.800Z,17.38
2018-07-02T03:29:33.812Z,17.38
2018-07-02T03:30:34.014Z,17.34
2018-07-02T03:31:33.846Z,17.38
2018-07-02T03:32:33.584Z,17.38
2018-07-02T03:33:33.879Z,17.34
2018-07-02T03:34:34.194Z,17.29
2018-07-02T03:35:33.633Z,17.31
2018-07-02T03:36:33.656Z,17.31
2018-07-02T03:37:33.951Z,17.31
2018-07-02T03:38:34.543Z,17.34
2018-07-02T03:39:34.008Z,17.3
2018-07-02T03:40:34.048Z,17.31
2018-07-02T03:41:34.270Z,17.22
2018-07-02T03:42:34.075Z,17.3
2018-07-02T03:43:34.093Z,17.2
2018-07-02T03:44:34.129Z,17.22
2018-07-02T03:45:34.744Z,17.24
2018-07-02T03:46:34.155Z,17.27
2018-07-02T03:47:34.201Z,17.27
2018-07-02T03:48:33.913Z,17.29
2018-07-02T03:49:35.054Z,17.23
2018-07-02T03:50:33.966Z,17.27
2018-07-02T03:51:34.261Z,17.24
2018-07-02T03:52:34.292Z,17.23
2018-07-02T03:53:34.656Z,17.22
2018-07-02T03:54:34.330Z,17.26
2018-07-02T03:55:34.329Z,17.23
2018-07-02T03:56:33.787Z,17.26
2018-07-02T03:57:35.523Z,17.2
2018-07-02T03:58:34.407Z,17.19
2018-07-02T03:59:34.425Z,17.15
2018-07-02T04:00:34.436Z,17.15
2018-07-02T04:01:35.658Z,17.19
2018-07-02T04:02:34.208Z,17.11
2018-07-02T04:03:34.509Z,17.09
2018-07-02T04:04:34.540Z,17.12
2018-07-02T04:05:35.639Z,17.19
2018-07-02T04:06:34.550Z,17.14
2018-07-02T04:07:34.295Z,17.16
2018-07-02T04:08:34.611Z,17.22
2018-07-02T04:09:35.743Z,17.11
2018-07-02T04:10:34.662Z,17.08
2018-07-02T04:11:34.682Z,17.19
2018-07-02T04:12:34.679Z,17.15
2018-07-02T04:13:34.718Z,17.15
2018-07-02T04:14:34.735Z,17.16
2018-07-02T04:15:34.477Z,17.09
2018-07-02T04:16:34.758Z,17.11
2018-07-02T04:17:34.820Z,17.11
2018-07-02T04:18:36.049Z,17.06
2018-07-02T04:19:35.191Z,17.11
2018-07-02T04:20:34.933Z,17.15
2018-07-02T04:21:35.847Z,17.12
2018-07-02T04:22:34.601Z,17.14
2018-07-02T04:23:35.936Z,17.11
2018-07-02T04:24:34.361Z,17.12
2018-07-02T04:25:35.133Z,17.11
2018-07-02T04:26:34.987Z,17.14
2018-07-02T04:27:34.725Z,17.02
2018-07-02T04:28:35.399Z,17.08
2018-07-02T04:29:34.741Z,17.08
2018-07-02T04:30:34.768Z,17.08
2018-07-02T04:31:34.784Z,17.06
2018-07-02T04:32:35.864Z,17.05
2018-07-02T04:33:35.128Z,17.15
2018-07-02T04:34:34.568Z,17.14
2018-07-02T04:35:34.886Z,17.14
2018-07-02T04:36:36.048Z,17.12
2018-07-02T04:37:34.906Z,17.04
2018-07-02T04:38:35.219Z,17.08
2018-07-02T04:39:34.950Z,17.02
2018-07-02T04:40:36.132Z,17.05
2018-07-02T04:41:35.470Z,17.15
2018-07-02T04:42:35.601Z,17.05
2018-07-02T04:43:36.202Z,17.05
2018-07-02T04:44:35.632Z,17.05
2018-07-02T04:45:36.096Z,17.04
2018-07-02T04:46:35.092Z,17.09
2018-07-02T04:47:35.493Z,17.14
2018-07-02T04:48:36.561Z,17.04
2018-07-02T04:49:35.730Z,17.08
2018-07-02T04:50:36.434Z,17.04
2018-07-02T04:51:34.911Z,17.09
2018-07-02T04:52:35.801Z,17.05
2018-07-02T04:53:35.844Z,17.11
2018-07-02T04:54:35.263Z,17.12
2018-07-02T04:55:35.575Z,17.11
2018-07-02T04:56:36.741Z,17.04
2018-07-02T04:57:35.602Z,17.11
2018-07-02T04:58:35.977Z,17.09
2018-07-02T04:59:35.754Z,17.08
2018-07-02T05:00:36.154Z,17.15
2018-07-02T05:01:35.397Z,17.15
2018-07-02T05:02:35.770Z,17.08
2018-07-02T05:03:35.694Z,17.11
2018-07-02T05:04:35.709Z,17.16
2018-07-02T05:05:35.738Z,17.14
2018-07-02T05:06:35.490Z,17.15
2018-07-02T05:07:35.841Z,17.14
2018-07-02T05:08:35.525Z,17.11
2018-07-02T05:09:35.811Z,17.14
2018-07-02T05:10:35.827Z,17.11
2018-07-02T05:11:35.856Z,17.04
2018-07-02T05:12:35.606Z,17.14
2018-07-02T05:13:35.772Z,17.15
2018-07-02T05:14:35.645Z,17.06
2018-07-02T05:15:35.939Z,17.09
2018-07-02T05:16:35.959Z,17.11
2018-07-02T05:17:35.974Z,17.15
2018-07-02T05:18:35.467Z,17.08
2018-07-02T05:19:36.012Z,17.22
2018-07-02T05:20:36.029Z,17.12
2018-07-02T05:21:36.054Z,17.14
2018-07-02T05:22:35.805Z,17.23
2018-07-02T05:23:36.090Z,17.15
2018-07-02T05:24:35.581Z,17.14
2018-07-02T05:25:35.874Z,17.22
2018-07-02T05:26:35.898Z,17.16
2018-07-02T05:27:35.909Z,17.12
2018-07-02T05:28:35.664Z,17.19
2018-07-02T05:29:35.948Z,17.15
2018-07-02T05:30:35.975Z,17.22
2018-07-02T05:31:36.326Z,17.15
2018-07-02T05:32:36.273Z,17.19
2018-07-02T05:33:36.296Z,17.15
2018-07-02T05:34:36.320Z,17.2
2018-07-02T05:35:36.084Z,17.22
2018-07-02T05:36:36.094Z,17.14
2018-07-02T05:37:36.108Z,17.19
2018-07-02T05:38:36.136Z,17.22
2018-07-02T05:39:36.421Z,17.19
2018-07-02T05:40:36.445Z,17.22
2018-07-02T05:41:36.191Z,17.19
2018-07-02T05:42:36.478Z,17.23
2018-07-02T05:43:36.498Z,17.26
2018-07-02T05:44:36.521Z,17.24
2018-07-02T05:45:36.546Z,17.19
2018-07-02T05:46:36.299Z,17.24
2018-07-02T05:47:36.315Z,17.24
2018-07-02T05:48:36.439Z,17.27
2018-07-02T05:49:36.093Z,17.26
2018-07-02T05:50:36.384Z,17.31
2018-07-02T05:51:36.661Z,17.34
2018-07-02T05:52:36.689Z,17.24
2018-07-02T05:53:36.709Z,17.24
2018-07-02T05:54:36.732Z,17.23
2018-07-02T05:55:36.477Z,17.34
2018-07-02T05:56:36.768Z,17.31
2018-07-02T05:57:36.518Z,17.34
2018-07-02T05:58:36.269Z,17.34
2018-07-02T05:59:36.832Z,17.36
2018-07-02T06:00:37.135Z,17.39
2018-07-02T06:01:36.877Z,17.38
2018-07-02T06:02:36.351Z,17.36
2018-07-02T06:03:36.924Z,17.36
2018-07-02T06:04:36.930Z,17.34
2018-07-02T06:05:36.685Z,17.38
2018-07-02T06:06:36.967Z,17.36
2018-07-02T06:07:36.735Z,17.34
2018-07-02T06:08:36.485Z,17.36
2018-07-02T06:09:36.774Z,17.33
2018-07-02T06:10:36.788Z,17.33
2018-07-02T06:11:36.818Z,17.42
2018-07-02T06:12:37.297Z,17.34
2018-07-02T06:13:37.113Z,17.52
2018-07-02T06:14:36.880Z,17.42
2018-07-02T06:15:36.888Z,17.52
2018-07-02T06:16:36.647Z,17.48
2018-07-02T06:17:36.932Z,17.45
2018-07-02T06:18:36.944Z,17.48
2018-07-02T06:19:36.975Z,17.49
2018-07-02T06:20:36.985Z,17.63
2018-07-02T06:21:37.279Z,17.59
2018-07-02T06:22:37.025Z,17.49
2018-07-02T06:23:37.315Z,17.52
2018-07-02T06:24:37.330Z,17.56
2018-07-02T06:25:37.351Z,17.57
2018-07-02T06:26:37.380Z,17.6
2018-07-02T06:27:37.137Z,17.63
2018-07-02T06:28:37.154Z,17.64
2018-07-02T06:29:37.446Z,17.67
2018-07-02T06:30:37.647Z,17.67
2018-07-02T06:31:37.212Z,17.63
2018-07-02T06:32:37.497Z,17.68
2018-07-02T06:33:37.517Z,17.71
2018-07-02T06:34:37.275Z,17.67
2018-07-02T06:35:37.288Z,17.7
2018-07-02T06:36:37.588Z,17.74
2018-07-02T06:37:37.062Z,17.74
2018-07-02T06:38:37.618Z,17.76
2018-07-02T06:39:37.645Z,17.72
2018-07-02T06:40:37.657Z,17.79
2018-07-02T06:41:37.675Z,17.78
2018-07-02T06:42:37.700Z,17.87
2018-07-02T06:43:37.466Z,17.86
2018-07-02T06:44:37.485Z,17.86
2018-07-02T06:45:37.770Z,17.89
2018-07-02T06:46:37.790Z,17.86
2018-07-02T06:47:37.271Z,17.95
2018-07-02T06:48:37.713Z,17.97
2018-07-02T06:49:37.571Z,17.97
2018-07-02T06:50:37.860Z,18
2018-07-02T06:51:37.895Z,17.98
2018-07-02T06:52:37.905Z,18.03
2018-07-02T06:53:37.933Z,18.01
2018-07-02T06:54:37.954Z,18.07
2018-07-02T06:55:37.440Z,18.07
2018-07-02T06:56:37.990Z,18.1
2018-07-02T06:57:37.743Z,18.15
2018-07-02T06:58:38.122Z,18.11
2018-07-02T06:59:38.053Z,18.28
2018-07-02T07:00:38.085Z,18.23
2018-07-02T07:01:37.556Z,18.2
2018-07-02T07:02:37.847Z,18.23
2018-07-02T07:03:38.146Z,18.29
2018-07-02T07:04:38.150Z,18.31
2018-07-02T07:05:37.905Z,18.37
2018-07-02T07:06:38.200Z,18.41
2018-07-02T07:07:38.215Z,18.43
2018-07-02T07:08:38.036Z,18.45
2018-07-02T07:09:38.000Z,18.53
2018-07-02T07:10:38.012Z,18.55
2018-07-02T07:11:38.032Z,18.65
2018-07-02T07:12:38.333Z,18.6
2018-07-02T07:13:38.333Z,18.56
2018-07-02T07:14:38.354Z,18.75
2018-07-02T07:15:38.254Z,18.71
2018-07-02T07:16:38.400Z,18.78
2018-07-02T07:17:38.160Z,18.9
2018-07-02T07:18:38.446Z,18.92
2018-07-02T07:19:38.467Z,18.88
2018-07-02T07:20:38.224Z,18.88
2018-07-02T07:21:38.511Z,18.93
2018-07-02T07:22:37.987Z,19.04
2018-07-02T07:23:38.548Z,19.14
2018-07-02T07:24:38.311Z,19.16
2018-07-02T07:25:38.594Z,19.16
2018-07-02T07:26:38.338Z,19.24
2018-07-02T07:27:38.893Z,19.27
2018-07-02T07:28:38.647Z,19.39
2018-07-02T07:29:38.406Z,19.41
2018-07-02T07:30:38.153Z,19.47
2018-07-02T07:31:38.446Z,19.56
2018-07-02T07:32:38.484Z,19.59
2018-07-02T07:33:38.488Z,19.62
2018-07-02T07:34:38.513Z,19.73
2018-07-02T07:35:38.793Z,19.74
2018-07-02T07:36:38.324Z,19.81
2018-07-02T07:37:38.936Z,19.96
2018-07-02T07:38:38.857Z,20.02
2018-07-02T07:39:38.612Z,20.06
2018-07-02T07:40:38.903Z,20.13
2018-07-02T07:41:38.915Z,20.1
2018-07-02T07:42:38.955Z,20.13
2018-07-02T07:43:38.953Z,20.31
2018-07-02T07:44:38.719Z,20.31
2018-07-02T07:45:38.999Z,20.41
2018-07-02T07:46:38.757Z,20.44
2018-07-02T07:47:39.042Z,20.51
2018-07-02T07:48:39.067Z,20.65
2018-07-02T07:49:39.086Z,20.62
2018-07-02T07:50:38.841Z,20.74
2018-07-02T07:51:39.184Z,20.85
2018-07-02T07:52:38.887Z,20.85
2018-07-02T07:53:39.173Z,20.9
2018-07-02T07:54:39.193Z,21.03
2018-07-02T07:55:38.957Z,21.25
2018-07-02T07:56:39.237Z,21.21
2018-07-02T07:57:38.994Z,21.33
2018-07-02T07:58:39.272Z,21.27
2018-07-02T07:59:39.442Z,21.4
2018-07-02T08:00:38.789Z,21.37
2018-07-02T08:01:39.338Z,21.45
2018-07-02T08:02:39.366Z,21.62
2018-07-02T08:03:39.502Z,21.7
2018-07-02T08:04:39.408Z,21.7
2018-07-02T08:05:39.160Z,21.82
2018-07-02T08:06:39.457Z,21.91
2018-07-02T08:07:39.484Z,21.98
2018-07-02T08:08:39.228Z,22.06
2018-07-02T08:09:39.514Z,22.02
2018-07-02T08:10:39.008Z,22.26
2018-07-02T08:11:39.303Z,22.29
2018-07-02T08:12:39.312Z,22.41
2018-07-02T08:13:39.066Z,22.5
2018-07-02T08:14:39.092Z,22.51
2018-07-02T08:15:39.391Z,22.53
2018-07-02T08:16:39.404Z,22.57
2018-07-02T08:17:39.437Z,22.68
2018-07-02T08:18:39.458Z,22.78
2018-07-02T08:19:39.483Z,22.88
2018-07-02T08:20:39.497Z,22.88
2018-07-02T08:21:39.515Z,22.99
2018-07-02T08:22:39.541Z,23.05
2018-07-02T08:23:39.821Z,23.15
2018-07-02T08:24:39.583Z,23.17
2018-07-02T08:25:39.600Z,23.25
2018-07-02T08:26:39.897Z,23.36
2018-07-02T08:27:39.377Z,23.48
2018-07-02T08:28:39.931Z,23.55
2018-07-02T08:29:39.425Z,23.73
2018-07-02T08:30:39.451Z,23.69
2018-07-02T08:31:39.732Z,23.77
2018-07-02T08:32:40.022Z,23.83
2018-07-02T08:33:40.047Z,23.92
2018-07-02T08:34:40.075Z,23.99
2018-07-02T08:35:40.104Z,24.05
2018-07-02T08:36:40.119Z,24.17
2018-07-02T08:37:39.613Z,24.23
2018-07-02T08:38:39.896Z,24.26
2018-07-02T08:39:40.178Z,24.36
2018-07-02T08:40:40.201Z,24.39
2018-07-02T08:41:39.967Z,24.57
2018-07-02T08:42:40.249Z,24.54
2018-07-02T08:43:40.275Z,24.66
2018-07-02T08:44:40.295Z,24.65
2018-07-02T08:45:40.320Z,24.81
2018-07-02T08:46:40.077Z,24.66
2018-07-02T08:47:40.094Z,24.84
2018-07-02T08:48:40.394Z,24.98
2018-07-02T08:49:40.154Z,25.07
2018-07-02T08:50:40.438Z,25.1
2018-07-02T08:51:40.188Z,25.13
2018-07-02T08:52:40.532Z,25.18
2018-07-02T08:53:40.503Z,25.31
2018-07-02T08:54:40.528Z,25.28
2018-07-02T08:55:40.279Z,25.41
2018-07-02T08:56:40.573Z,25.48
2018-07-02T08:57:40.594Z,25.55
2018-07-02T08:58:40.625Z,25.69
2018-07-02T08:59:40.652Z,25.73
2018-07-02T09:00:40.396Z,25.81
2018-07-02T09:01:40.690Z,25.96
2018-07-02T09:02:40.444Z,26.02
2018-07-02T09:03:40.732Z,26.05
2018-07-02T09:04:40.760Z,26.07
2018-07-02T09:05:40.785Z,26.07
2018-07-02T09:06:40.275Z,26.09
2018-07-02T09:07:40.838Z,26.33
2018-07-02T09:08:40.856Z,26.28
2018-07-02T09:09:40.880Z,26.47
2018-07-02T09:10:40.915Z,26.48
2018-07-02T09:11:41.103Z,26.58
2018-07-02T09:12:40.947Z,26.66
2018-07-02T09:13:40.708Z,26.78
2018-07-02T09:14:41.209Z,26.83
2018-07-02T09:15:40.758Z,26.92
2018-07-02T09:16:41.047Z,26.92
2018-07-02T09:17:41.161Z,27.1
2018-07-02T09:18:41.092Z,27.12
2018-07-02T09:19:40.851Z,27.3
2018-07-02T09:20:41.330Z,27.39
2018-07-02T09:21:40.902Z,27.45
2018-07-02T09:22:41.193Z,27.45
2018-07-02T09:23:40.988Z,27.58
2018-07-02T09:24:40.979Z,27.64
2018-07-02T09:25:41.265Z,27.7
2018-07-02T09:26:41.174Z,27.85
2018-07-02T09:27:41.316Z,27.9
2018-07-02T09:28:41.348Z,27.92
2018-07-02T09:29:41.368Z,28.07
2018-07-02T09:30:40.875Z,28.1
2018-07-02T09:31:41.153Z,28.12
2018-07-02T09:32:41.666Z,28.17
2018-07-02T09:33:41.479Z,28.23
2018-07-02T09:34:41.227Z,28.3
2018-07-02T09:35:41.245Z,28.37
2018-07-02T09:36:41.541Z,28.44
2018-07-02T09:37:41.042Z,28.44
2018-07-02T09:38:41.601Z,28.51
2018-07-02T09:39:41.627Z,28.6
2018-07-02T09:40:41.379Z,28.63
2018-07-02T09:41:41.395Z,28.76
2018-07-02T09:42:41.690Z,28.76
2018-07-02T09:43:41.453Z,28.84
2018-07-02T09:44:41.765Z,28.88
2018-07-02T09:45:41.781Z,28.93
2018-07-02T09:46:41.791Z,29.01
2018-07-02T09:47:41.556Z,28.98
2018-07-02T09:48:41.839Z,29.12
2018-07-02T09:49:41.899Z,29.14
2018-07-02T09:50:41.359Z,29.2
2018-07-02T09:51:41.933Z,29.22
2018-07-02T09:52:41.707Z,29.32
2018-07-02T09:53:41.443Z,29.35
2018-07-02T09:54:42.007Z,29.39
2018-07-02T09:55:42.031Z,29.49
2018-07-02T09:56:41.784Z,29.6
2018-07-02T09:57:42.074Z,29.66
2018-07-02T09:58:42.255Z,29.69
2018-07-02T09:59:42.133Z,29.76
2018-07-02T10:00:42.564Z,29.86
2018-07-02T10:01:42.186Z,29.94
2018-07-02T10:02:42.214Z,30.03
2018-07-02T10:03:42.236Z,30.13
2018-07-02T10:04:42.263Z,30.35
2018-07-02T10:05:42.301Z,30.31
2018-07-02T10:06:42.460Z,30.47
2018-07-02T10:07:42.347Z,30.62
2018-07-02T10:08:42.117Z,30.57
2018-07-02T10:09:42.140Z,30.72
2018-07-02T10:10:42.153Z,30.78
2018-07-02T10:11:42.191Z,30.81
2018-07-02T10:12:42.020Z,30.88
2018-07-02T10:13:42.239Z,31.02
2018-07-02T10:14:42.290Z,30.99
2018-07-02T10:15:42.041Z,31.03
2018-07-02T10:16:42.584Z,31.12
2018-07-02T10:17:42.619Z,31.17
2018-07-02T10:18:42.374Z,31.24
2018-07-02T10:19:42.663Z,31.22
2018-07-02T10:20:42.704Z,31.31
2018-07-02T10:21:42.449Z,31.37
2018-07-02T10:22:42.216Z,31.43
2018-07-02T10:23:43.027Z,31.37
2018-07-02T10:24:42.798Z,31.4
2018-07-02T10:25:42.826Z,31.54
2018-07-02T10:26:42.860Z,31.44
2018-07-02T10:27:42.346Z,31.56
2018-07-02T10:28:42.911Z,31.62
2018-07-02T10:29:42.671Z,31.77
2018-07-02T10:30:42.719Z,31.71
2018-07-02T10:31:43.031Z,31.85
2018-07-02T10:32:43.013Z,31.8
2018-07-02T10:33:43.048Z,31.96
2018-07-02T10:34:43.121Z,31.96
2018-07-02T10:35:42.832Z,32.12
2018-07-02T10:36:43.128Z,32.18
2018-07-02T10:37:43.159Z,32.29
2018-07-02T10:38:43.188Z,32.31
2018-07-02T10:39:43.214Z,32.46
2018-07-02T10:40:42.971Z,32.52
2018-07-02T10:41:43.279Z,32.6
2018-07-02T10:42:43.301Z,32.73
2018-07-02T10:43:43.076Z,32.71
2018-07-02T10:44:43.091Z,32.74
2018-07-02T10:45:43.385Z,32.8
2018-07-02T10:46:42.874Z,32.86
2018-07-02T10:47:43.435Z,32.89
2018-07-02T10:48:43.464Z,32.93
2018-07-02T10:49:43.235Z,33
2018-07-02T10:50:43.524Z,33.08
2018-07-02T10:51:43.283Z,33.15
2018-07-02T10:52:43.319Z,33.12
2018-07-02T10:53:43.608Z,33.22
2018-07-02T10:54:43.371Z,33.27
2018-07-02T10:55:43.499Z,33.28
2018-07-02T10:56:43.703Z,33.4
2018-07-02T10:57:43.726Z,33.46
2018-07-02T10:58:43.762Z,33.5
2018-07-02T10:59:43.520Z,33.49
2018-07-02T11:00:43.823Z,33.57
2018-07-02T11:01:43.850Z,33.65
2018-07-02T11:02:43.604Z,33.69
2018-07-02T11:03:43.976Z,33.79
2018-07-02T11:04:43.660Z,33.86
2018-07-02T11:05:43.742Z,33.87
2018-07-02T11:06:43.463Z,33.95
2018-07-02T11:07:44.018Z,34.05
2018-07-02T11:08:44.046Z,34.08
2018-07-02T11:09:44.081Z,34.1
2018-07-02T11:10:44.113Z,34.18
2018-07-02T11:11:44.140Z,34.18
2018-07-02T11:12:44.174Z,34.3
2018-07-02T11:13:44.196Z,34.38
2018-07-02T11:14:43.697Z,34.36
2018-07-02T11:15:44.252Z,34.48
2018-07-02T11:16:44.020Z,34.61
2018-07-02T11:17:43.778Z,34.62
2018-07-02T11:18:44.345Z,34.66
2018-07-02T11:19:44.370Z,34.74
2018-07-02T11:20:44.136Z,34.89
2018-07-02T11:21:44.433Z,34.86
2018-07-02T11:22:44.464Z,34.95
2018-07-02T11:23:44.763Z,35
2018-07-02T11:24:44.525Z,35.15
2018-07-02T11:25:44.285Z,35.18
2018-07-02T11:26:44.582Z,35.24
2018-07-02T11:27:44.612Z,35.29
2018-07-02T11:28:44.643Z,35.3
2018-07-02T11:29:44.684Z,35.33
2018-07-02T11:30:44.439Z,35.34
2018-07-02T11:31:44.475Z,35.39
2018-07-02T11:32:44.503Z,35.49
2018-07-02T11:33:44.797Z,35.46
2018-07-02T11:34:44.831Z,35.56
2018-07-02T11:35:44.590Z,35.58
2018-07-02T11:36:44.620Z,35.61
2018-07-02T11:37:44.919Z,35.64
2018-07-02T11:38:45.016Z,35.71
2018-07-02T11:39:44.983Z,35.74
2018-07-02T11:40:44.747Z,35.82
2018-07-02T11:41:44.511Z,35.76
2018-07-02T11:42:45.070Z,35.88
2018-07-02T11:43:45.104Z,35.93
2018-07-02T11:44:45.136Z,35.98
2018-07-02T11:45:44.904Z,35.92
2018-07-02T11:46:45.205Z,36.07
2018-07-02T11:47:45.234Z,36.09
2018-07-02T11:48:44.997Z,36.23
2018-07-02T11:49:45.441Z,36.2
2018-07-02T11:50:45.330Z,36.25
2018-07-02T11:51:45.360Z,36.24
2018-07-02T11:52:45.392Z,36.3
2018-07-02T11:53:45.423Z,36.36
2018-07-02T11:54:45.462Z,36.39
2018-07-02T11:55:45.485Z,36.45
2018-07-02T11:56:45.515Z,36.51
2018-07-02T11:57:45.549Z,36.47
2018-07-02T11:58:45.577Z,36.62
2018-07-02T11:59:45.610Z,36.64
2018-07-02T12:00:45.373Z,36.76
2018-07-02T12:01:45.410Z,36.76
2018-07-02T12:02:45.169Z,36.79
2018-07-02T12:03:45.468Z,36.83
2018-07-02T12:04:45.763Z,36.96
2018-07-02T12:05:45.540Z,36.99
2018-07-02T12:06:45.836Z,36.96
2018-07-02T12:07:45.869Z,37.06
2018-07-02T12:08:45.632Z,37.03
2018-07-02T12:09:45.931Z,37.11
2018-07-02T12:10:45.970Z,37.14
2018-07-02T12:11:45.994Z,37.17
2018-07-02T12:12:46.027Z,37.21
2018-07-02T12:13:46.063Z,37.35
2018-07-02T12:14:46.082Z,37.28
2018-07-02T12:15:46.142Z,37.42
2018-07-02T12:16:46.156Z,37.45
2018-07-02T12:17:45.937Z,37.55
2018-07-02T12:18:46.235Z,37.63
2018-07-02T12:19:46.255Z,37.58
2018-07-02T12:20:45.759Z,37.7
2018-07-02T12:21:45.779Z,37.71
2018-07-02T12:22:46.360Z,37.78
2018-07-02T12:23:46.378Z,37.83
2018-07-02T12:24:46.153Z,37.9
2018-07-02T12:25:46.443Z,37.87
2018-07-02T12:26:46.493Z,37.99
2018-07-02T12:27:46.516Z,38.02
2018-07-02T12:28:46.542Z,38.09
2018-07-02T12:29:46.580Z,38.19
2018-07-02T12:30:46.615Z,38.31
2018-07-02T12:31:46.377Z,38.23
2018-07-02T12:32:46.411Z,38.39
2018-07-02T12:33:46.708Z,38.38
2018-07-02T12:34:46.746Z,38.43
2018-07-02T12:35:46.511Z,38.4
2018-07-02T12:36:46.805Z,38.31
2018-07-02T12:37:46.841Z,38.52
2018-07-02T12:38:46.873Z,38.48
2018-07-02T12:39:46.905Z,38.48
2018-07-02T12:40:46.410Z,38.62
2018-07-02T12:41:46.707Z,38.61
2018-07-02T12:42:47.019Z,38.64
2018-07-02T12:43:46.776Z,38.71
2018-07-02T12:44:47.079Z,38.71
2018-07-02T12:45:46.843Z,38.73
2018-07-02T12:46:47.239Z,38.69
2018-07-02T12:47:47.178Z,38.84
2018-07-02T12:48:46.953Z,38.95
2018-07-02T12:49:46.969Z,38.99
2018-07-02T12:50:47.272Z,39
2018-07-02T12:51:47.306Z,38.97
2018-07-02T12:52:47.340Z,39.14
2018-07-02T12:53:46.846Z,39.07
2018-07-02T12:54:47.144Z,39.04
2018-07-02T12:55:47.444Z,39.19